createdAt,value
2018-11-12T00:02:55.967Z,92.9
2018-11-12T00:07:58.319Z,92.7
2018-11-12T00:13:00.720Z,92.5
2018-11-12T00:18:03.174Z,92.5
2018-11-12T00:23:05.610Z,92.3
2018-11-12T00:28:08.057Z,92.3
2018-11-12T00:33:10.499Z,92.2
2018-11-12T00:38:12.930Z,92.2
2018-11-12T00:43:15.369Z,92.1
2018-11-12T00:48:17.822Z,91.9
2018-11-12T00:53:20.239Z,91.6
2018-11-12T00:58:22.702Z,91.5
2018-11-12T01:03:25.246Z,91.2
2018-11-12T01:08:27.573Z,91
2018-11-12T01:13:30.033Z,90.9
2018-11-12T01:18:32.460Z,90.8
2018-11-12T01:28:37.351Z,90.6
2018-11-12T01:33:39.802Z,90.4
2018-11-12T01:38:42.251Z,90.2
2018-11-12T01:43:44.640Z,90
2018-11-12T01:48:47.103Z,90
2018-11-12T01:53:49.560Z,89.8
2018-11-12T01:58:51.964Z,90
2018-11-12T02:03:54.425Z,90
2018-11-12T02:08:56.946Z,90
2018-11-12T02:13:59.298Z,89.9
2018-11-12T02:19:01.828Z,89.3
2018-11-12T02:24:04.181Z,88.5
2018-11-12T02:29:06.624Z,87.7
2018-11-12T02:34:09.063Z,88.3
2018-11-12T02:39:11.505Z,89.5
2018-11-12T02:49:16.398Z,90.3
2018-11-12T02:54:18.854Z,90.1
2018-11-12T02:59:21.279Z,91.9
2018-11-12T03:04:23.698Z,92.3
2018-11-12T03:09:26.163Z,92.1
2018-11-12T03:14:28.621Z,91.3
2018-11-12T03:19:31.099Z,91
2018-11-12T03:24:33.495Z,90.8
2018-11-12T03:29:35.971Z,90.6
2018-11-12T03:34:38.398Z,90.8
2018-11-12T03:39:40.898Z,91.2
2018-11-12T03:44:43.304Z,90.8
2018-11-12T03:49:45.700Z,90.6
2018-11-12T03:54:48.153Z,90.6
2018-11-12T03:59:50.598Z,90.6
2018-11-12T04:04:53.042Z,90.5
2018-11-12T04:09:55.492Z,90.6
2018-11-12T04:14:57.964Z,90.9
2018-11-12T04:20:00.404Z,91
2018-11-12T04:25:02.806Z,91.6
2018-11-12T04:30:05.291Z,91.6
2018-11-12T04:35:07.704Z,91.4
2018-11-12T04:40:10.129Z,91.6
2018-11-12T04:45:12.650Z,92.4
2018-11-12T04:50:15.032Z,92.9
2018-11-12T04:55:17.602Z,93.3
2018-11-12T05:00:19.934Z,93.3
2018-11-12T05:05:22.375Z,92.9
2018-11-12T05:10:24.797Z,92.6
2018-11-12T05:15:27.282Z,92.6
2018-11-12T05:20:29.692Z,92.6
2018-11-12T05:25:32.240Z,92.7
2018-11-12T05:30:34.645Z,92.7
2018-11-12T05:35:37.143Z,92.7
2018-11-12T05:40:39.438Z,92.5
2018-11-12T05:45:41.883Z,92.4
2018-11-12T05:50:44.337Z,92.4
2018-11-12T05:55:46.811Z,92.3
2018-11-12T06:00:49.210Z,92
2018-11-12T06:05:51.673Z,91.8
2018-11-12T06:10:54.093Z,91.7
2018-11-12T06:15:56.535Z,91.5
2018-11-12T06:20:58.984Z,91.2
2018-11-12T06:26:01.437Z,91
2018-11-12T06:31:03.870Z,90.8
2018-11-12T06:36:06.344Z,90.7
2018-11-12T06:41:08.735Z,90.6
2018-11-12T06:46:11.165Z,90.4
2018-11-12T06:51:13.635Z,90.3
2018-11-12T06:56:16.065Z,90.1
2018-11-12T07:01:18.502Z,90.1
2018-11-12T07:06:21.039Z,90.1
2018-11-12T07:11:23.442Z,90.2
2018-11-12T07:16:25.872Z,90.3
2018-11-12T07:21:28.303Z,90.3
2018-11-12T07:26:30.687Z,90.3
2018-11-12T07:31:33.171Z,90.2
2018-11-12T07:36:35.586Z,90.2
2018-11-12T07:41:38.032Z,90.2
2018-11-12T07:46:40.467Z,90.1
2018-11-12T07:51:42.929Z,90
2018-11-12T07:56:45.348Z,89.9
2018-11-12T08:01:47.781Z,90
2018-11-12T08:06:50.230Z,90
2018-11-12T08:11:52.725Z,90.1
2018-11-12T08:16:55.137Z,90.2
2018-11-12T08:21:57.563Z,90.2
2018-11-12T08:26:59.999Z,90.2
2018-11-12T08:32:02.710Z,90.1
2018-11-12T08:37:04.889Z,90.1
2018-11-12T08:42:07.310Z,90.1
2018-11-12T08:47:09.751Z,90.1
2018-11-12T08:52:12.369Z,88.9
2018-11-12T08:57:14.632Z,87.5
2018-11-12T09:02:17.078Z,86.1
2018-11-12T09:07:19.543Z,84.7
2018-11-12T09:12:22.019Z,84.1
2018-11-12T09:17:24.412Z,83.8
2018-11-12T09:22:26.847Z,82.5
2018-11-12T09:27:29.274Z,80
2018-11-12T09:32:31.777Z,77.6
2018-11-12T09:42:36.663Z,77.1
2018-11-12T09:47:39.077Z,76.3
2018-11-12T09:52:41.517Z,76.8
2018-11-12T09:57:43.918Z,75.5
2018-11-12T10:02:47.171Z,72
2018-11-12T10:07:51.434Z,68.8
2018-11-12T10:12:53.407Z,67.5
2018-11-12T10:17:55.823Z,66.1
2018-11-12T10:22:56.125Z,65.3
2018-11-12T10:27:58.572Z,63.3
2018-11-12T10:33:00.989Z,63.3
2018-11-12T10:38:03.447Z,61.1
2018-11-12T10:43:05.884Z,58.9
2018-11-12T10:48:08.400Z,56.6
2018-11-12T10:53:10.763Z,53.8
2018-11-12T10:58:13.306Z,53.1
2018-11-12T11:03:15.640Z,52.6
2018-11-12T11:08:18.195Z,51.7
2018-11-12T11:13:20.521Z,51.5
2018-11-12T11:18:22.950Z,50.4
2018-11-12T11:23:25.407Z,50
2018-11-12T11:28:27.903Z,49.1
2018-11-12T11:33:30.285Z,47
2018-11-12T11:38:32.736Z,46.6
2018-11-12T11:43:35.271Z,45.1
2018-11-12T11:48:37.720Z,45.5
2018-11-12T11:53:40.062Z,45
2018-11-12T11:58:42.522Z,42
2018-11-12T12:03:44.941Z,40.4
2018-11-12T12:08:47.457Z,40.1
2018-11-12T12:13:49.855Z,40.2
2018-11-12T12:18:52.411Z,39.4
2018-11-12T12:23:54.717Z,37.3
2018-11-12T12:28:57.181Z,36.5
2018-11-12T12:33:59.708Z,34.8
2018-11-12T12:39:02.048Z,34.2
2018-11-12T12:44:04.528Z,34.5
2018-11-12T12:49:06.913Z,33.7
2018-11-12T12:54:09.385Z,33.2
2018-11-12T12:59:11.820Z,33.1
2018-11-12T13:04:14.260Z,32.1
2018-11-12T13:09:16.710Z,32.2
2018-11-12T13:14:19.154Z,32.4
2018-11-12T13:19:21.602Z,33.5
2018-11-12T13:24:24.025Z,34.8
2018-11-12T13:29:26.479Z,35.9
2018-11-12T13:34:28.905Z,36.8
2018-11-12T13:39:31.433Z,37.5
2018-11-12T13:44:33.782Z,39.9
2018-11-12T13:49:36.225Z,38.6
2018-11-12T13:54:38.692Z,39.1
2018-11-12T13:59:41.106Z,40.1
2018-11-12T14:04:43.552Z,41
2018-11-12T14:09:45.999Z,41.8
2018-11-12T14:14:48.434Z,42.3
2018-11-12T14:19:50.860Z,44
2018-11-12T14:24:53.317Z,45
2018-11-12T14:29:55.748Z,46.2
2018-11-12T14:34:58.187Z,46.9
2018-11-12T14:40:00.657Z,47.5
2018-11-12T14:45:03.141Z,47.7
2018-11-12T14:50:05.521Z,47.9
2018-11-12T14:55:08.068Z,48.1
2018-11-12T15:00:10.399Z,49.1
2018-11-12T15:05:12.863Z,50.1
2018-11-12T15:10:15.286Z,50.8
2018-11-12T15:15:17.833Z,51.7
2018-11-12T15:20:20.164Z,52.1
2018-11-12T15:25:22.600Z,52.5
2018-11-12T15:30:25.027Z,52.8
2018-11-12T15:35:27.470Z,53.2
2018-11-12T15:40:29.990Z,53.4
2018-11-12T15:45:32.513Z,53.5
2018-11-12T15:50:34.836Z,53.7
2018-11-12T15:55:37.236Z,54.3
2018-11-12T16:00:39.661Z,54.3
2018-11-12T16:05:42.229Z,54.4
2018-11-12T16:10:44.589Z,54.5
2018-11-12T16:15:52.715Z,55
2018-11-12T16:20:49.429Z,56.3
2018-11-12T16:25:51.881Z,56.9
2018-11-12T16:30:54.583Z,57.6
2018-11-12T16:35:56.762Z,57.8
2018-11-12T16:40:59.325Z,58.2
2018-11-12T16:46:01.709Z,58.1
2018-11-12T16:51:04.104Z,58.2
2018-11-12T16:56:06.520Z,58.2
2018-11-12T17:01:08.977Z,58.2
2018-11-12T17:06:11.511Z,58
2018-11-12T17:11:13.907Z,58.1
2018-11-12T17:16:16.274Z,58.4
2018-11-12T17:21:18.704Z,58.6
2018-11-12T17:26:21.198Z,58.9
2018-11-12T17:31:23.600Z,59
2018-11-12T17:36:26.094Z,59.4
2018-11-12T17:41:28.639Z,59.6
2018-11-12T17:46:30.933Z,60.3
2018-11-12T17:51:33.457Z,61.2
2018-11-12T17:56:35.794Z,61.8
2018-11-12T18:01:38.337Z,61.7
2018-11-12T18:06:40.696Z,61.9
2018-11-12T18:11:43.154Z,62.4
2018-11-12T18:16:45.585Z,63.1
2018-11-12T18:21:48.109Z,63.2
2018-11-12T18:26:50.451Z,63
2018-11-12T18:31:53.090Z,63.1
2018-11-12T18:36:55.311Z,63.2
2018-11-12T18:41:58.004Z,63.4
2018-11-12T18:47:00.189Z,63.4
2018-11-12T18:52:02.627Z,63.1
2018-11-12T18:57:05.089Z,63.4
2018-11-12T19:02:07.512Z,64.2
2018-11-12T19:07:09.970Z,64.6
2018-11-12T19:12:12.428Z,65
2018-11-12T19:17:14.907Z,65.2
2018-11-12T19:22:17.269Z,65.2
2018-11-12T19:27:19.820Z,65.3
2018-11-12T19:32:22.345Z,65
2018-11-12T19:37:24.601Z,64.7
2018-11-12T19:42:27.034Z,65.2
2018-11-12T19:47:29.587Z,65.4
2018-11-12T19:52:31.919Z,65.4
2018-11-12T19:57:34.362Z,65.9
2018-11-12T20:02:36.787Z,66.9
2018-11-12T20:07:39.365Z,67
2018-11-12T20:12:41.676Z,67
2018-11-12T20:17:44.120Z,67
2018-11-12T20:22:46.579Z,66.5
2018-11-12T20:27:49.016Z,66.6
2018-11-12T20:32:51.539Z,66.4
2018-11-12T20:37:53.908Z,66.4
2018-11-12T20:42:56.326Z,66.4
2018-11-12T20:47:58.874Z,66.5
2018-11-12T20:53:01.213Z,66.6
2018-11-12T20:58:03.677Z,66.7
2018-11-12T21:03:06.109Z,66.8
2018-11-12T21:08:08.524Z,66.9
2018-11-12T21:13:10.984Z,67.1
2018-11-12T21:18:13.423Z,67.4
2018-11-12T21:23:15.842Z,67.9
2018-11-12T21:28:18.324Z,69.9
2018-11-12T21:33:20.721Z,71.3
2018-11-12T21:38:23.149Z,71.4
2018-11-12T21:43:25.784Z,71
2018-11-12T21:48:28.035Z,70.5
2018-11-12T21:53:30.475Z,70.2
2018-11-12T21:58:32.987Z,70
2018-11-12T22:03:35.350Z,70.1
2018-11-12T22:08:37.917Z,70.5
2018-11-12T22:18:42.750Z,70.8
2018-11-12T22:23:45.124Z,70.8
2018-11-12T22:28:47.548Z,70.9
2018-11-12T22:33:50.003Z,71.2
2018-11-12T22:38:52.434Z,71.2
2018-11-12T22:43:54.890Z,71.6
2018-11-12T22:48:57.311Z,72.6
2018-11-12T22:53:59.778Z,72.9
2018-11-12T22:59:02.220Z,73.2
2018-11-12T23:04:04.636Z,73.7
2018-11-12T23:09:07.102Z,74
2018-11-12T23:14:09.594Z,73.8
2018-11-12T23:19:11.964Z,73.6
2018-11-12T23:24:14.389Z,73.6
2018-11-12T23:29:16.828Z,73.8
2018-11-12T23:34:19.281Z,73.8
2018-11-12T23:39:21.739Z,74
2018-11-12T23:44:24.183Z,74.4
2018-11-12T23:49:26.601Z,74.5
2018-11-12T23:54:29.028Z,75.3
2018-11-12T23:59:31.484Z,76.3
